createdAt,value
2022-11-07T00:00:59.168Z,5.40
2022-11-07T00:03:30.930Z,5.50
2022-11-07T00:06:05.171Z,5.50
2022-11-07T00:08:36.956Z,5.50
2022-11-07T00:11:08.781Z,5.50
2022-11-07T00:13:40.570Z,5.50
2022-11-07T00:16:12.556Z,5.40
2022-11-07T00:18:44.338Z,5.50
2022-11-07T00:21:18.262Z,5.50
2022-11-07T00:23:52.658Z,5.50
2022-11-07T00:26:24.398Z,5.50
2022-11-07T00:28:56.481Z,5.50
2022-11-07T00:31:28.225Z,5.60
2022-11-07T00:34:00.117Z,5.50
2022-11-07T00:36:31.888Z,5.50
2022-11-07T00:39:03.742Z,5.50
2022-11-07T00:41:35.443Z,5.50
2022-11-07T00:44:09.532Z,5.50
2022-11-07T00:46:41.242Z,5.40
2022-11-07T00:49:12.973Z,5.30
2022-11-07T00:51:44.738Z,5.30
2022-11-07T00:54:16.494Z,5.20
2022-11-07T00:56:48.199Z,5.20
2022-11-07T00:59:19.953Z,5.10
2022-11-07T01:01:51.981Z,5.10
2022-11-07T01:04:42.555Z,5.10
2022-11-07T01:07:16.485Z,5.10
2022-11-07T01:09:50.644Z,5.10
2022-11-07T01:12:22.378Z,5.00
2022-11-07T01:14:54.150Z,5.10
2022-11-07T01:17:25.841Z,5.00
2022-11-07T01:19:57.591Z,5.10
2022-11-07T01:22:29.353Z,5.10
2022-11-07T01:25:01.186Z,5.10
2022-11-07T01:27:32.914Z,5.00
2022-11-07T01:30:04.974Z,5.00
2022-11-07T01:32:39.103Z,5.00
2022-11-07T01:35:10.900Z,4.90
2022-11-07T01:37:42.773Z,4.80
2022-11-07T01:40:17.361Z,4.80
2022-11-07T01:42:49.136Z,4.80
2022-11-07T01:45:25.975Z,4.70
2022-11-07T01:48:00.014Z,4.70
2022-11-07T01:50:31.844Z,4.70
2022-11-07T01:53:03.539Z,4.60
2022-11-07T01:55:35.918Z,4.60
2022-11-07T01:58:10.781Z,4.60
2022-11-07T02:00:44.749Z,4.60
2022-11-07T02:03:18.250Z,4.60
2022-11-07T02:05:55.346Z,4.60
2022-11-07T02:08:28.147Z,4.60
2022-11-07T02:11:02.271Z,4.60
2022-11-07T02:13:34.029Z,4.60
2022-11-07T02:16:08.304Z,4.60
2022-11-07T02:18:43.632Z,4.60
2022-11-07T02:21:18.105Z,4.60
2022-11-07T02:24:04.538Z,4.60
2022-11-07T02:26:37.306Z,4.60
2022-11-07T02:29:10.212Z,4.60
2022-11-07T02:31:41.996Z,4.60
2022-11-07T02:34:13.745Z,4.60
2022-11-07T02:36:45.624Z,4.60
2022-11-07T02:39:17.395Z,4.60
2022-11-07T02:41:49.323Z,4.70
2022-11-07T02:44:21.147Z,4.70
2022-11-07T02:46:52.945Z,4.70
2022-11-07T02:49:24.735Z,4.60
2022-11-07T02:51:56.546Z,4.70
2022-11-07T02:54:28.260Z,4.60
2022-11-07T02:57:00.000Z,4.70
2022-11-07T02:59:31.702Z,4.70
2022-11-07T03:02:03.601Z,4.60
2022-11-07T03:04:35.379Z,4.60
2022-11-07T03:07:09.569Z,4.60
2022-11-07T03:09:41.266Z,4.60
2022-11-07T03:12:13.036Z,4.60
2022-11-07T03:14:44.776Z,4.60
2022-11-07T03:17:19.023Z,4.60
2022-11-07T03:19:50.745Z,4.60
2022-11-07T03:22:22.582Z,4.60
2022-11-07T03:24:54.315Z,4.60
2022-11-07T03:27:26.126Z,4.60
2022-11-07T03:29:57.954Z,4.60
2022-11-07T03:32:29.806Z,4.60
2022-11-07T03:35:01.559Z,4.60
2022-11-07T03:37:35.775Z,4.60
2022-11-07T03:40:07.757Z,4.60
2022-11-07T03:42:40.414Z,4.60
2022-11-07T03:45:16.236Z,4.70
2022-11-07T03:47:50.379Z,4.70
2022-11-07T03:50:22.551Z,4.70
2022-11-07T03:52:56.842Z,4.70
2022-11-07T03:55:28.627Z,4.70
2022-11-07T03:58:02.766Z,4.70
2022-11-07T04:00:34.509Z,4.70
2022-11-07T04:03:06.353Z,4.70
2022-11-07T04:05:40.269Z,4.60
2022-11-07T04:08:14.145Z,4.60
2022-11-07T04:10:45.829Z,4.60
2022-11-07T04:13:36.448Z,4.60
2022-11-07T04:16:27.802Z,4.60
2022-11-07T04:19:01.611Z,4.60
2022-11-07T04:21:33.330Z,4.60
2022-11-07T04:24:05.335Z,4.60
2022-11-07T04:26:55.835Z,4.60
2022-11-07T04:29:29.772Z,4.60
2022-11-07T04:32:01.496Z,4.60
2022-11-07T04:34:35.370Z,4.60
2022-11-07T04:37:07.133Z,4.60
2022-11-07T04:39:38.899Z,4.50
2022-11-07T04:42:13.036Z,4.50
2022-11-07T04:44:44.798Z,4.50
2022-11-07T04:47:16.497Z,4.40
2022-11-07T04:49:48.313Z,4.50
2022-11-07T04:52:20.007Z,4.40
2022-11-07T04:54:54.266Z,4.40
2022-11-07T04:57:28.376Z,4.40
2022-11-07T05:00:00.070Z,4.30
2022-11-07T05:02:31.890Z,4.30
2022-11-07T05:05:04.330Z,4.30
2022-11-07T05:07:36.014Z,4.30
2022-11-07T05:10:12.225Z,4.20
2022-11-07T05:12:46.596Z,4.20
2022-11-07T05:15:18.393Z,4.20
2022-11-07T05:17:50.362Z,4.20
2022-11-07T05:20:25.080Z,4.30
2022-11-07T05:23:12.845Z,4.30
2022-11-07T05:25:46.730Z,4.30
2022-11-07T05:28:25.769Z,4.40
2022-11-07T05:31:01.311Z,4.40
2022-11-07T05:33:33.335Z,4.40
2022-11-07T05:36:11.059Z,4.40
2022-11-07T05:38:43.871Z,4.50
2022-11-07T05:41:16.505Z,4.50
2022-11-07T05:43:48.479Z,4.50
2022-11-07T05:46:20.236Z,4.60
2022-11-07T05:48:54.389Z,4.60
2022-11-07T05:51:28.340Z,4.60
2022-11-07T05:54:00.051Z,4.60
2022-11-07T05:56:31.780Z,4.60
2022-11-07T05:59:06.445Z,4.60
2022-11-07T06:01:38.295Z,4.70
2022-11-07T06:04:10.101Z,4.70
2022-11-07T06:06:41.904Z,4.70
2022-11-07T06:09:13.675Z,4.70
2022-11-07T06:11:45.440Z,4.80
2022-11-07T06:14:17.193Z,4.70
2022-11-07T06:16:48.966Z,4.80
2022-11-07T06:19:20.699Z,4.80
2022-11-07T06:21:52.509Z,4.80
2022-11-07T06:24:27.085Z,4.90
2022-11-07T06:27:01.082Z,4.80
2022-11-07T06:29:35.247Z,4.90
2022-11-07T06:32:07.067Z,4.90
2022-11-07T06:34:38.791Z,4.90
2022-11-07T06:37:10.585Z,4.90
2022-11-07T06:39:42.270Z,4.90
2022-11-07T06:42:14.077Z,4.90
2022-11-07T06:44:45.793Z,4.90
2022-11-07T06:47:19.956Z,5.00
2022-11-07T06:49:51.687Z,5.00
2022-11-07T06:52:23.463Z,5.00
2022-11-07T06:54:57.736Z,5.00
2022-11-07T06:57:31.845Z,5.00
2022-11-07T07:00:04.559Z,5.00
2022-11-07T07:02:57.434Z,5.10
2022-11-07T07:05:27.966Z,5.10
2022-11-07T07:08:02.546Z,5.10
2022-11-07T07:10:38.070Z,5.10
2022-11-07T07:13:09.896Z,5.10
2022-11-07T07:15:50.898Z,5.10
2022-11-07T07:18:23.502Z,5.10
2022-11-07T07:21:01.560Z,5.10
2022-11-07T07:23:34.817Z,5.10
2022-11-07T07:26:07.892Z,5.20
2022-11-07T07:28:39.908Z,5.20
2022-11-07T07:31:14.669Z,5.20
2022-11-07T07:33:46.878Z,5.30
2022-11-07T07:36:20.885Z,5.30
2022-11-07T07:38:55.410Z,5.50
2022-11-07T07:41:29.548Z,5.40
2022-11-07T07:44:06.569Z,5.40
2022-11-07T07:46:38.313Z,5.50
2022-11-07T07:49:10.156Z,5.50
2022-11-07T07:51:41.919Z,5.50
2022-11-07T07:54:13.761Z,5.60
2022-11-07T07:56:45.502Z,5.60
2022-11-07T07:59:19.544Z,5.70
2022-11-07T08:01:56.571Z,5.70
2022-11-07T08:04:29.007Z,5.70
2022-11-07T08:07:03.283Z,5.80
2022-11-07T08:09:38.308Z,5.90
2022-11-07T08:12:12.211Z,5.90
2022-11-07T08:14:44.044Z,6.00
2022-11-07T08:17:15.794Z,6.10
2022-11-07T08:19:47.545Z,6.10
2022-11-07T08:22:19.308Z,6.10
2022-11-07T08:24:51.075Z,6.10
2022-11-07T08:27:24.932Z,6.10
2022-11-07T08:29:59.397Z,6.10
2022-11-07T08:32:31.145Z,6.10
2022-11-07T08:35:02.976Z,6.00
2022-11-07T08:37:34.752Z,6.10
2022-11-07T08:40:09.889Z,6.10
2022-11-07T08:42:41.731Z,6.20
2022-11-07T08:45:13.516Z,6.20
2022-11-07T08:47:45.221Z,6.30
2022-11-07T08:50:19.129Z,6.40
2022-11-07T08:52:50.872Z,6.40
2022-11-07T08:55:22.641Z,6.50
2022-11-07T08:58:04.963Z,6.50
2022-11-07T09:00:38.895Z,6.60
2022-11-07T09:06:04.959Z,6.90
2022-11-07T09:08:36.915Z,6.90
2022-11-07T09:11:08.774Z,7.00
2022-11-07T09:13:40.512Z,7.00
2022-11-07T09:16:12.614Z,7.10
2022-11-07T09:18:44.992Z,7.20
2022-11-07T09:21:22.125Z,7.30
2022-11-07T09:23:54.516Z,7.40
2022-11-07T09:26:26.259Z,7.50
2022-11-07T09:29:01.066Z,7.60
2022-11-07T09:31:33.269Z,7.70
2022-11-07T09:34:04.991Z,7.70
2022-11-07T09:36:36.754Z,7.70
2022-11-07T09:39:08.499Z,7.60
2022-11-07T09:42:00.506Z,7.70
2022-11-07T09:44:37.524Z,7.60
2022-11-07T09:47:14.717Z,7.70
2022-11-07T09:49:51.047Z,7.70
2022-11-07T09:52:27.940Z,7.70
2022-11-07T09:55:05.021Z,7.70
2022-11-07T09:57:37.796Z,7.70
2022-11-07T10:00:32.096Z,7.80
2022-11-07T10:03:04.117Z,7.90
2022-11-07T10:05:55.222Z,8.20
2022-11-07T10:08:35.343Z,8.40
2022-11-07T10:11:16.845Z,8.50
2022-11-07T10:13:51.970Z,8.60
2022-11-07T10:16:43.461Z,8.70
2022-11-07T10:19:18.216Z,8.80
2022-11-07T10:21:52.781Z,8.80
2022-11-07T10:24:27.276Z,8.90
2022-11-07T10:26:59.520Z,8.90
2022-11-07T10:29:44.607Z,8.90
2022-11-07T10:32:26.852Z,9.00
2022-11-07T10:35:16.285Z,9.10
2022-11-07T10:37:54.861Z,9.10
2022-11-07T10:40:31.622Z,9.20
2022-11-07T10:43:05.324Z,9.20
2022-11-07T10:45:37.553Z,9.20
2022-11-07T10:48:14.964Z,9.10
2022-11-07T10:50:53.938Z,9.10
2022-11-07T10:53:26.429Z,9.10
2022-11-07T10:56:00.638Z,9.00
2022-11-07T10:58:35.175Z,9.00
2022-11-07T11:01:08.239Z,9.00
2022-11-07T11:03:45.796Z,9.00
2022-11-07T11:06:17.758Z,9.00
2022-11-07T11:08:50.984Z,9.10
2022-11-07T11:11:30.678Z,9.10
2022-11-07T11:14:07.401Z,9.20
2022-11-07T11:16:42.984Z,9.20
2022-11-07T11:19:37.489Z,9.30
2022-11-07T11:22:15.544Z,9.40
2022-11-07T11:24:57.849Z,9.40
2022-11-07T11:27:31.617Z,9.50
2022-11-07T11:30:07.352Z,9.40
2022-11-07T11:32:57.852Z,9.50
2022-11-07T11:35:29.587Z,9.50
2022-11-07T11:38:09.029Z,9.60
2022-11-07T11:40:42.256Z,9.60
2022-11-07T11:43:20.107Z,9.60
2022-11-07T11:45:58.108Z,9.60
2022-11-07T11:48:34.792Z,9.60
2022-11-07T11:51:15.044Z,9.60
2022-11-07T11:53:51.667Z,9.60
2022-11-07T11:56:23.395Z,9.50
2022-11-07T11:59:15.757Z,9.60
2022-11-07T12:02:06.004Z,9.70
2022-11-07T12:04:44.653Z,9.90
2022-11-07T12:07:22.455Z,10.20
2022-11-07T12:10:00.863Z,10.60
2022-11-07T12:12:52.096Z,10.80
2022-11-07T12:15:41.456Z,10.80
2022-11-07T12:18:13.145Z,10.80
2022-11-07T12:20:49.145Z,10.80
2022-11-07T12:23:36.189Z,10.70
2022-11-07T12:26:12.688Z,10.70
2022-11-07T12:28:47.400Z,10.50
2022-11-07T12:31:23.538Z,10.50
2022-11-07T12:34:03.500Z,10.40
2022-11-07T12:36:39.747Z,10.40
2022-11-07T12:39:19.778Z,10.40
2022-11-07T12:41:56.681Z,10.30
2022-11-07T12:44:47.095Z,10.30
2022-11-07T12:47:21.855Z,10.30
2022-11-07T12:50:23.104Z,10.30
2022-11-07T12:53:24.002Z,10.20
2022-11-07T12:55:58.144Z,10.10
2022-11-07T12:58:34.298Z,10.10
2022-11-07T13:01:06.500Z,10.10
2022-11-07T13:03:47.426Z,10.10
2022-11-07T13:06:38.043Z,10.10
2022-11-07T13:09:18.917Z,10.00
2022-11-07T13:11:50.683Z,10.00
2022-11-07T13:14:24.815Z,9.90
2022-11-07T13:17:08.722Z,9.90
2022-11-07T13:19:57.736Z,9.80
2022-11-07T13:22:37.565Z,9.80
2022-11-07T13:25:16.430Z,9.80
2022-11-07T13:27:57.799Z,9.80
2022-11-07T13:30:29.515Z,9.80
2022-11-07T13:33:01.565Z,9.80
2022-11-07T13:35:33.327Z,9.80
2022-11-07T13:38:11.264Z,9.80
2022-11-07T13:40:50.418Z,9.70
2022-11-07T13:43:44.673Z,9.70
2022-11-07T13:46:23.126Z,9.60
2022-11-07T13:48:58.159Z,9.60
2022-11-07T13:51:35.229Z,9.60
2022-11-07T13:54:06.913Z,9.60
2022-11-07T13:56:38.620Z,9.60
2022-11-07T13:59:36.650Z,9.60
2022-11-07T14:02:18.768Z,9.50
2022-11-07T14:07:50.343Z,9.40
2022-11-07T14:10:26.213Z,9.40
2022-11-07T14:13:19.199Z,9.30
2022-11-07T14:15:53.984Z,9.30
2022-11-07T14:18:30.747Z,9.20
2022-11-07T14:21:02.614Z,9.20
2022-11-07T14:23:34.334Z,9.20
2022-11-07T14:26:26.424Z,9.20
2022-11-07T14:29:00.800Z,9.10
2022-11-07T14:31:33.807Z,9.10
2022-11-07T14:34:16.403Z,9.10
2022-11-07T14:36:52.820Z,9.10
2022-11-07T14:39:25.849Z,9.00
2022-11-07T14:41:58.922Z,8.90
2022-11-07T14:44:53.945Z,8.90
2022-11-07T14:47:31.932Z,8.80
2022-11-07T14:50:04.289Z,8.70
2022-11-07T14:52:46.973Z,8.70
2022-11-07T14:55:32.709Z,8.60
2022-11-07T14:58:06.103Z,8.50
2022-11-07T15:00:37.876Z,8.50
2022-11-07T15:03:18.888Z,8.50
2022-11-07T15:05:53.493Z,8.40
2022-11-07T15:08:27.476Z,8.40
2022-11-07T15:11:00.394Z,8.30
2022-11-07T15:13:35.076Z,8.30
2022-11-07T15:16:16.238Z,8.30
2022-11-07T15:18:52.637Z,8.20
2022-11-07T15:21:30.461Z,8.10
2022-11-07T15:24:22.115Z,8.10
2022-11-07T15:27:01.452Z,8.00
2022-11-07T15:29:35.252Z,8.00
2022-11-07T15:32:14.392Z,8.00
2022-11-07T15:37:41.322Z,7.90
2022-11-07T15:40:16.520Z,7.90
2022-11-07T15:42:50.680Z,7.90
2022-11-07T15:45:22.686Z,7.90
2022-11-07T15:47:54.529Z,7.90
2022-11-07T15:50:26.299Z,7.80
2022-11-07T15:53:00.322Z,7.90
2022-11-07T15:55:33.254Z,7.90
2022-11-07T15:58:05.117Z,7.90
2022-11-07T16:00:36.955Z,7.90
2022-11-07T16:03:13.670Z,8.00
2022-11-07T16:05:46.950Z,8.10
2022-11-07T16:08:23.929Z,8.10
2022-11-07T16:11:01.148Z,8.20
2022-11-07T16:13:32.987Z,8.20
2022-11-07T16:16:05.899Z,8.30
2022-11-07T16:18:44.364Z,8.40
2022-11-07T16:21:17.121Z,8.50
2022-11-07T16:23:49.928Z,8.50
2022-11-07T16:26:30.833Z,8.50
2022-11-07T16:29:02.639Z,8.50
2022-11-07T16:31:35.854Z,8.50
2022-11-07T16:34:09.085Z,8.50
2022-11-07T16:36:41.241Z,8.60
2022-11-07T16:39:16.943Z,8.60
2022-11-07T16:41:50.585Z,8.60
2022-11-07T16:44:26.236Z,8.60
2022-11-07T16:46:58.492Z,8.50
2022-11-07T16:49:32.595Z,8.50
2022-11-07T16:52:07.103Z,8.40
2022-11-07T16:54:38.955Z,8.40
2022-11-07T16:57:14.547Z,8.40
2022-11-07T16:59:46.518Z,8.40
2022-11-07T17:02:23.025Z,8.30
2022-11-07T17:04:54.974Z,8.30
2022-11-07T17:07:26.737Z,8.30
2022-11-07T17:10:01.030Z,8.30
2022-11-07T17:12:32.783Z,8.30
2022-11-07T17:15:04.787Z,8.30
2022-11-07T17:17:38.987Z,8.40
2022-11-07T17:20:49.120Z,8.40
2022-11-07T17:23:14.625Z,8.50
2022-11-07T17:25:51.246Z,8.60
2022-11-07T17:28:23.308Z,8.60
2022-11-07T17:30:55.157Z,8.70
2022-11-07T17:33:26.910Z,8.70
2022-11-07T17:35:58.746Z,8.80
2022-11-07T17:38:30.489Z,8.80
2022-11-07T17:41:17.356Z,8.90
2022-11-07T17:43:50.113Z,8.90
2022-11-07T17:46:26.475Z,8.90
2022-11-07T17:48:59.439Z,8.90
2022-11-07T17:51:31.290Z,9.00
2022-11-07T17:54:05.882Z,9.00
2022-11-07T17:56:37.745Z,9.00
2022-11-07T17:59:15.877Z,9.00
2022-11-07T18:01:50.616Z,9.10
2022-11-07T18:04:22.419Z,9.10
2022-11-07T18:06:54.172Z,9.10
2022-11-07T18:09:26.347Z,9.10
2022-11-07T18:11:58.103Z,9.10
2022-11-07T18:14:29.929Z,9.10
2022-11-07T18:17:01.748Z,9.00
2022-11-07T18:19:33.552Z,8.90
2022-11-07T18:22:05.397Z,8.90
2022-11-07T18:24:37.143Z,8.80
2022-11-07T18:27:10.609Z,8.80
2022-11-07T18:29:42.690Z,8.70
2022-11-07T18:32:14.460Z,8.70
2022-11-07T18:34:46.209Z,8.60
2022-11-07T18:37:19.034Z,8.70
2022-11-07T18:39:52.975Z,8.70
2022-11-07T18:42:24.836Z,8.70
2022-11-07T18:44:57.017Z,8.70
2022-11-07T18:47:29.707Z,8.70
2022-11-07T18:50:01.448Z,8.80
2022-11-07T18:52:33.318Z,8.70
2022-11-07T18:55:05.198Z,8.80
2022-11-07T18:57:36.989Z,8.80
2022-11-07T19:00:13.401Z,8.80
2022-11-07T19:02:45.555Z,8.80
2022-11-07T19:05:18.820Z,8.80
2022-11-07T19:07:50.912Z,8.80
2022-11-07T19:10:22.605Z,8.80
2022-11-07T19:12:57.106Z,8.70
2022-11-07T19:15:30.651Z,8.70
2022-11-07T19:18:02.418Z,8.70
2022-11-07T19:20:34.170Z,8.70
2022-11-07T19:23:06.029Z,8.60
2022-11-07T19:25:41.498Z,8.60
2022-11-07T19:28:13.297Z,8.60
2022-11-07T19:30:45.230Z,8.60
2022-11-07T19:33:17.639Z,8.50
2022-11-07T19:35:57.358Z,8.50
2022-11-07T19:38:30.807Z,8.40
2022-11-07T19:41:06.669Z,8.40
2022-11-07T19:43:39.095Z,8.40
2022-11-07T19:46:18.798Z,8.40
2022-11-07T19:48:56.817Z,8.30
2022-11-07T19:51:29.283Z,8.30
2022-11-07T19:54:03.804Z,8.40
2022-11-07T19:56:35.745Z,8.40
2022-11-07T19:59:07.940Z,8.40
2022-11-07T20:01:39.923Z,8.40
2022-11-07T20:04:11.909Z,8.50
2022-11-07T20:15:40.205Z,8.60
2022-11-07T20:18:11.944Z,8.60
2022-11-07T20:20:43.736Z,8.60
2022-11-07T20:23:16.291Z,8.60
2022-11-07T20:25:48.164Z,8.60
2022-11-07T20:28:19.960Z,8.60
2022-11-07T20:30:55.989Z,8.60
2022-11-07T20:33:27.806Z,8.60
2022-11-07T20:36:00.764Z,8.70
2022-11-07T20:38:32.653Z,8.70
2022-11-07T20:41:05.508Z,8.60
2022-11-07T20:43:37.441Z,8.60
2022-11-07T20:46:10.488Z,8.60
2022-11-07T20:48:43.029Z,8.60
2022-11-07T20:51:20.157Z,8.60
2022-11-07T20:53:52.394Z,8.50
2022-11-07T20:56:24.875Z,8.50
2022-11-07T20:58:58.152Z,8.50
2022-11-07T21:01:37.405Z,8.50
2022-11-07T21:04:10.851Z,8.50
2022-11-07T21:06:42.810Z,8.50
2022-11-07T21:09:14.640Z,8.40
2022-11-07T21:11:46.458Z,8.40
2022-11-07T21:14:18.769Z,8.40
2022-11-07T21:16:53.170Z,8.40
2022-11-07T21:19:24.928Z,8.40
2022-11-07T21:21:56.740Z,8.40
2022-11-07T21:24:31.891Z,8.40
2022-11-07T21:27:04.869Z,8.40
2022-11-07T21:29:36.888Z,8.50
2022-11-07T21:32:08.799Z,8.40
2022-11-07T21:34:40.818Z,8.50
2022-11-07T21:37:12.666Z,8.50
2022-11-07T21:39:44.443Z,8.50
2022-11-07T21:42:16.612Z,8.50
2022-11-07T21:44:50.592Z,8.50
2022-11-07T21:47:22.356Z,8.50
2022-11-07T21:49:54.123Z,8.50
2022-11-07T21:52:25.940Z,8.50
2022-11-07T21:54:58.005Z,8.50
2022-11-07T21:57:30.115Z,8.50
2022-11-07T22:00:04.917Z,8.50
2022-11-07T22:02:36.848Z,8.50
2022-11-07T22:05:08.992Z,8.50
2022-11-07T22:07:41.130Z,8.40
2022-11-07T22:10:15.418Z,8.40
2022-11-07T22:12:47.283Z,8.40
2022-11-07T22:15:21.629Z,8.40
2022-11-07T22:17:54.567Z,8.40
2022-11-07T22:20:26.325Z,8.30
2022-11-07T22:22:58.514Z,8.40
2022-11-07T22:25:31.968Z,8.40
2022-11-07T22:28:03.717Z,8.40
2022-11-07T22:30:37.040Z,8.40
2022-11-07T22:33:11.070Z,8.40
2022-11-07T22:35:42.757Z,8.40
2022-11-07T22:38:14.518Z,8.40
2022-11-07T22:40:46.713Z,8.40
2022-11-07T22:43:18.831Z,8.40
2022-11-07T22:45:53.245Z,8.40
2022-11-07T22:48:25.030Z,8.40
2022-11-07T22:51:03.788Z,8.50
2022-11-07T22:53:39.279Z,8.50
2022-11-07T22:56:10.986Z,8.60
2022-11-07T22:58:43.189Z,8.70
2022-11-07T23:01:19.589Z,8.70
2022-11-07T23:03:52.779Z,8.80
2022-11-07T23:06:27.667Z,8.80
2022-11-07T23:09:00.010Z,8.80
2022-11-07T23:11:48.886Z,8.70
2022-11-07T23:14:25.693Z,8.70
2022-11-07T23:16:57.481Z,8.60
2022-11-07T23:19:31.723Z,8.60
2022-11-07T23:22:03.537Z,8.60
2022-11-07T23:24:35.245Z,8.50
2022-11-07T23:27:09.056Z,8.60
2022-11-07T23:29:40.855Z,8.60
2022-11-07T23:32:13.059Z,8.60
2022-11-07T23:34:44.831Z,8.60
2022-11-07T23:37:17.979Z,8.70
2022-11-07T23:39:49.739Z,8.70
2022-11-07T23:42:21.449Z,8.70
2022-11-07T23:45:11.892Z,8.70
2022-11-07T23:48:03.856Z,8.80
2022-11-07T23:50:54.020Z,8.80
2022-11-07T23:53:44.302Z,8.80
2022-11-07T23:56:16.116Z,8.90
2022-11-07T23:59:07.125Z,8.80
